Time,TemperatureF,DewpointF,PressureIn,WindDirection,WindDirectionDegrees,WindSpeedMPH,WindSpeedGustMPH,Humidity,HourlyPrecipIn,Conditions,Clouds,dailyrainin,SolarRadiationWatts/m^2,SoftwareType,DateUTC
2013-02-15 00:00:00,32.0,23.0,-100.00,WNW,292,6.0,-999.0,70,-99.99,,,-99.99,0.000000,,2013-02-15 05:00:00,
2013-02-15 00:42:00,32.0,23.0,-100.00,WNW,292,6.0,-999.0,70,-99.99,,,-99.99,0.000000,,2013-02-15 05:42:00,
2013-02-15 00:52:00,32.0,23.0,-100.00,WNW,292,6.0,-999.0,70,-99.99,,,-99.99,0.000000,,2013-02-15 05:52:00,
2013-02-15 03:00:00,30.0,24.0,-100.00,NNW,337,6.0,-999.0,77,-99.99,,,-99.99,0.000000,,2013-02-15 08:00:00,
2013-02-15 03:42:00,30.0,24.0,-100.00,NNW,337,6.0,-999.0,77,-99.99,,,-99.99,0.000000,,2013-02-15 08:42:00,
2013-02-15 03:53:00,30.0,24.0,-100.00,NNW,337,6.0,-999.0,77,-99.99,,,-99.99,0.000000,,2013-02-15 08:53:00,
2013-02-15 06:00:00,26.0,22.0,-100.00,NNW,337,3.0,-999.0,84,-99.99,,,-99.99,0.000000,,2013-02-15 11:00:00,
2013-02-15 06:43:00,26.0,22.0,-100.00,NNW,337,3.0,-999.0,84,-99.99,,,-99.99,0.000000,,2013-02-15 11:43:00,
2013-02-15 06:52:00,26.0,22.0,-100.00,NNW,337,3.0,-999.0,84,-99.99,,,-99.99,0.000000,,2013-02-15 11:52:00,
2013-02-15 09:00:00,25.0,20.0,-100.00,NNW,337,6.0,-999.0,81,-99.99,,,-99.99,29.000000,,2013-02-15 14:00:00,
2013-02-15 09:42:00,25.0,20.0,-100.00,NNW,337,6.0,-999.0,81,-99.99,,,-99.99,29.000000,,2013-02-15 14:42:00,
2013-02-15 09:52:00,25.0,20.0,-100.00,NNW,337,6.0,-999.0,81,-99.99,,,-99.99,29.000000,,2013-02-15 14:52:00,
2013-02-15 12:00:00,25.0,21.0,-100.00,NW,315,6.0,-999.0,83,-99.99,,,-99.99,172.839996,,2013-02-15 17:00:00,
2013-02-15 12:32:00,25.0,21.0,-100.00,NW,315,6.0,-999.0,83,-99.99,,,-99.99,172.839996,,2013-02-15 17:32:00,
2013-02-15 12:42:00,25.0,21.0,-100.00,NW,315,6.0,-999.0,83,-99.99,,,-99.99,172.839996,,2013-02-15 17:42:00,
2013-02-15 12:52:00,25.0,21.0,-100.00,NW,315,6.0,-999.0,83,-99.99,,,-99.99,172.839996,,2013-02-15 17:52:00,
2013-02-15 15:00:00,26.0,14.0,-100.00,NNW,337,9.0,-999.0,60,-99.99,,,-99.99,212.279999,,2013-02-15 20:00:00,
2013-02-15 15:42:00,26.0,14.0,-100.00,NNW,337,9.0,-999.0,60,-99.99,,,-99.99,212.279999,,2013-02-15 20:42:00,
2013-02-15 15:52:00,26.0,14.0,-100.00,NNW,337,9.0,-999.0,60,-99.99,,,-99.99,212.279999,,2013-02-15 20:52:00,
2013-02-15 18:00:00,24.0,16.0,-100.00,NW,315,6.0,-999.0,70,-99.99,,,-99.99,44.080002,,2013-02-15 23:00:00,
2013-02-15 18:32:00,24.0,16.0,-100.00,NW,315,6.0,-999.0,70,-99.99,,,-99.99,44.080002,,2013-02-15 23:32:00,
2013-02-15 18:42:00,24.0,16.0,-100.00,NW,315,6.0,-999.0,70,-99.99,,,-99.99,44.080002,,2013-02-15 23:42:00,
2013-02-15 18:52:00,24.0,16.0,-100.00,NW,315,6.0,-999.0,70,-99.99,,,-99.99,44.080002,,2013-02-15 23:52:00,
2013-02-15 21:00:00,20.0,15.0,-100.00,SSW,202,1.0,-999.0,80,-99.99,,,-99.99,0.000000,,2013-02-16 02:00:00,
2013-02-15 21:42:00,20.0,15.0,-100.00,SSW,202,1.0,-999.0,80,-99.99,,,-99.99,0.000000,,2013-02-16 02:42:00,
2013-02-15 21:52:00,20.0,15.0,-100.00,SSW,202,1.0,-999.0,80,-99.99,,,-99.99,0.000000,,2013-02-16 02:52:00,